RUK7QL EGPH-EGAA
Flight info
| Callsign | RUK7QL |
|---|---|
| Flight time | 0h 29m |
| Altitude | 24000 |
| Route | GOSAM P600 BLACA DCT BELZU |
| Aircraft | B738/M-SDE2E3FGHIRWXY/LB1 |
Departure
| Time | 2026-05-05 21:49 |
|---|---|
| Airport | Edinburgh Airport (EGPH) |
Arrival
| Time | 2026-05-05 22:18 |
|---|---|
| Airport | Belfast International Airport (EGAA) |
| Time | Latitude | Longitude | Altitude | Speed | Heading |
|---|---|---|---|---|---|
| 2026-05-05 21:35 | 55.94800 | -3.35681 | 144 ft | 0 kts | 209° |
| 2026-05-05 21:40 | 55.94805 | -3.35677 | 144 ft | 2 kts | 209° |
| 2026-05-05 21:40 | 55.94819 | -3.35663 | 144 ft | 1 kts | 209° |
| 2026-05-05 21:40 | 55.94827 | -3.35655 | 144 ft | 2 kts | 211° |
| 2026-05-05 21:41 | 55.94839 | -3.35632 | 144 ft | 3 kts | 242° |
| 2026-05-05 21:41 | 55.94844 | -3.35598 | 144 ft | 3 kts | 274° |
| 2026-05-05 21:41 | 55.94841 | -3.35566 | 144 ft | 3 kts | 282° |
| 2026-05-05 21:41 | 55.94835 | -3.35536 | 144 ft | 0 kts | 298° |
| 2026-05-05 21:43 | 55.94836 | -3.35538 | 144 ft | 0 kts | 298° |
| 2026-05-05 21:43 | 55.94842 | -3.35559 | 144 ft | 4 kts | 298° |
| 2026-05-05 21:44 | 55.94863 | -3.35627 | 144 ft | 9 kts | 298° |
| 2026-05-05 21:44 | 55.94899 | -3.35745 | 144 ft | 13 kts | 298° |
| 2026-05-05 21:44 | 55.94963 | -3.35874 | 144 ft | 14 kts | 3° |
| 2026-05-05 21:44 | 55.95050 | -3.35861 | 144 ft | 11 kts | 297° |
| 2026-05-05 21:45 | 55.95091 | -3.35997 | 144 ft | 15 kts | 298° |
| 2026-05-05 21:45 | 55.95132 | -3.36194 | 144 ft | 18 kts | 287° |
| 2026-05-05 21:45 | 55.95113 | -3.36347 | 144 ft | 14 kts | 239° |
| 2026-05-05 21:45 | 55.95056 | -3.36516 | 144 ft | 18 kts | 239° |
| 2026-05-05 21:46 | 55.94984 | -3.36729 | 144 ft | 22 kts | 239° |
| 2026-05-05 21:46 | 55.94915 | -3.36935 | 144 ft | 21 kts | 239° |
| 2026-05-05 21:46 | 55.94833 | -3.37178 | 144 ft | 25 kts | 239° |
| 2026-05-05 21:46 | 55.94737 | -3.37465 | 144 ft | 29 kts | 239° |
| 2026-05-05 21:47 | 55.94650 | -3.37724 | 144 ft | 23 kts | 239° |
| 2026-05-05 21:47 | 55.94592 | -3.37901 | 144 ft | 16 kts | 251° |
| 2026-05-05 21:47 | 55.94629 | -3.37986 | 144 ft | 11 kts | 329° |
| 2026-05-05 21:47 | 55.94693 | -3.38065 | 144 ft | 10 kts | 299° |
| 2026-05-05 21:48 | 55.94714 | -3.38099 | 144 ft | 4 kts | 46° |
| 2026-05-05 21:48 | 55.94724 | -3.38075 | 144 ft | 0 kts | 59° |
| 2026-05-05 21:48 | 55.94735 | -3.38042 | 144 ft | 19 kts | 59° |
| 2026-05-05 21:48 | 55.94939 | -3.37438 | 144 ft | 93 kts | 59° |
| 2026-05-05 21:49 | 55.95377 | -3.36132 | 153 ft | 150 kts | 59° |
| 2026-05-05 21:49 | 55.95907 | -3.34550 | 732 ft | 145 kts | 59° |
| 2026-05-05 21:49 | 55.96426 | -3.32991 | 1329 ft | 146 kts | 57° |
| 2026-05-05 21:49 | 55.97153 | -3.31753 | 1931 ft | 145 kts | 42° |
| 2026-05-05 21:50 | 55.97975 | -3.30652 | 2495 ft | 153 kts | 39° |
| 2026-05-05 21:50 | 55.98870 | -3.29474 | 3085 ft | 163 kts | 39° |
| 2026-05-05 21:50 | 55.99788 | -3.28266 | 3715 ft | 170 kts | 38° |
| 2026-05-05 21:50 | 56.00898 | -3.27417 | 4288 ft | 180 kts | 10° |
| 2026-05-05 21:51 | 56.02119 | -3.27902 | 4968 ft | 185 kts | 335° |
| 2026-05-05 21:51 | 56.02981 | -3.29606 | 5645 ft | 190 kts | 299° |
| 2026-05-05 21:51 | 56.03171 | -3.31932 | 6345 ft | 193 kts | 268° |
| 2026-05-05 21:51 | 56.02953 | -3.34395 | 7081 ft | 214 kts | 260° |
| 2026-05-05 21:52 | 56.02189 | -3.40186 | 8684 ft | 259 kts | 257° |
| 2026-05-05 21:52 | 56.01743 | -3.43406 | 9553 ft | 276 kts | 257° |
| 2026-05-05 21:52 | 56.01256 | -3.46894 | 10375 ft | 301 kts | 258° |
| 2026-05-05 21:53 | 56.00737 | -3.50680 | 11254 ft | 325 kts | 258° |
| 2026-05-05 21:53 | 56.00187 | -3.54699 | 12114 ft | 347 kts | 258° |
| 2026-05-05 21:53 | 55.99589 | -3.59033 | 12983 ft | 366 kts | 258° |
| 2026-05-05 21:53 | 55.98975 | -3.63505 | 13835 ft | 382 kts | 258° |
| 2026-05-05 21:54 | 55.98317 | -3.68204 | 14693 ft | 395 kts | 257° |
| 2026-05-05 21:54 | 55.97627 | -3.73022 | 15551 ft | 405 kts | 257° |
| 2026-05-05 21:54 | 55.96914 | -3.77960 | 16409 ft | 413 kts | 257° |
| 2026-05-05 21:54 | 55.96186 | -3.82972 | 17265 ft | 419 kts | 257° |
| 2026-05-05 21:55 | 55.95323 | -3.87922 | 18110 ft | 424 kts | 249° |
| 2026-05-05 21:55 | 55.93911 | -3.92591 | 18979 ft | 429 kts | 239° |
| 2026-05-05 21:55 | 55.92154 | -3.96925 | 19847 ft | 431 kts | 234° |
| 2026-05-05 21:55 | 55.90230 | -4.00965 | 20582 ft | 435 kts | 230° |
| 2026-05-05 21:56 | 55.88136 | -4.04944 | 21079 ft | 437 kts | 228° |
| 2026-05-05 21:56 | 55.85997 | -4.08731 | 21521 ft | 437 kts | 226° |
| 2026-05-05 21:56 | 55.83772 | -4.12467 | 21957 ft | 436 kts | 225° |
| 2026-05-05 21:56 | 55.81503 | -4.15987 | 22384 ft | 436 kts | 222° |
| 2026-05-05 21:57 | 55.79166 | -4.19352 | 22832 ft | 435 kts | 220° |
| 2026-05-05 21:57 | 55.76746 | -4.22649 | 23274 ft | 434 kts | 219° |
| 2026-05-05 21:57 | 55.74333 | -4.25785 | 23701 ft | 433 kts | 218° |
| 2026-05-05 21:57 | 55.71867 | -4.28898 | 23992 ft | 435 kts | 217° |
| 2026-05-05 21:58 | 55.69386 | -4.31982 | 24104 ft | 434 kts | 217° |
| 2026-05-05 21:58 | 55.66929 | -4.35009 | 24133 ft | 434 kts | 217° |
| 2026-05-05 21:58 | 55.64438 | -4.38061 | 24128 ft | 433 kts | 217° |
| 2026-05-05 21:58 | 55.61979 | -4.41063 | 24122 ft | 432 kts | 217° |
| 2026-05-05 21:59 | 55.59491 | -4.44091 | 24117 ft | 431 kts | 217° |
| 2026-05-05 21:59 | 55.57010 | -4.47105 | 24113 ft | 431 kts | 217° |
| 2026-05-05 21:59 | 55.54551 | -4.50087 | 24112 ft | 430 kts | 217° |
| 2026-05-05 21:59 | 55.52102 | -4.53054 | 24111 ft | 430 kts | 217° |
| 2026-05-05 22:00 | 55.49624 | -4.56057 | 24111 ft | 430 kts | 217° |
| 2026-05-05 22:00 | 55.47143 | -4.59060 | 24111 ft | 431 kts | 217° |
| 2026-05-05 22:00 | 55.44667 | -4.62056 | 24111 ft | 431 kts | 217° |
| 2026-05-05 22:00 | 55.42216 | -4.65018 | 24111 ft | 431 kts | 217° |
| 2026-05-05 22:01 | 55.39758 | -4.67984 | 24110 ft | 431 kts | 217° |
| 2026-05-05 22:01 | 55.37269 | -4.70997 | 24109 ft | 431 kts | 217° |
| 2026-05-05 22:01 | 55.34766 | -4.73929 | 24109 ft | 432 kts | 215° |
| 2026-05-05 22:01 | 55.32207 | -4.76667 | 24109 ft | 432 kts | 213° |
| 2026-05-05 22:02 | 55.29617 | -4.79276 | 24108 ft | 433 kts | 212° |
| 2026-05-05 22:02 | 55.26964 | -4.81856 | 24106 ft | 433 kts | 211° |
| 2026-05-05 22:02 | 55.24299 | -4.84362 | 24104 ft | 434 kts | 210° |
| 2026-05-05 22:02 | 55.21626 | -4.86819 | 24103 ft | 434 kts | 210° |
| 2026-05-05 22:03 | 55.18964 | -4.89207 | 24102 ft | 434 kts | 209° |
| 2026-05-05 22:03 | 55.16265 | -4.91576 | 24101 ft | 434 kts | 209° |
| 2026-05-05 22:03 | 55.13553 | -4.93926 | 24097 ft | 435 kts | 209° |
| 2026-05-05 22:03 | 55.10819 | -4.96280 | 23783 ft | 439 kts | 208° |
| 2026-05-05 22:04 | 55.08133 | -4.98578 | 23215 ft | 415 kts | 208° |
| 2026-05-05 22:04 | 55.05647 | -5.00696 | 22625 ft | 391 kts | 209° |
| 2026-05-05 22:04 | 55.03262 | -5.02751 | 22020 ft | 372 kts | 209° |
| 2026-05-05 22:04 | 55.00982 | -5.04721 | 21414 ft | 357 kts | 209° |
| 2026-05-05 22:05 | 54.98817 | -5.06590 | 20816 ft | 345 kts | 210° |
| 2026-05-05 22:05 | 54.96695 | -5.08416 | 20213 ft | 335 kts | 210° |
| 2026-05-05 22:05 | 54.94638 | -5.10213 | 19609 ft | 326 kts | 210° |
| 2026-05-05 22:05 | 54.92637 | -5.11984 | 19005 ft | 318 kts | 211° |
| 2026-05-05 22:06 | 54.90919 | -5.14208 | 18410 ft | 306 kts | 230° |
| 2026-05-05 22:06 | 54.89713 | -5.17168 | 17829 ft | 296 kts | 242° |
| 2026-05-05 22:06 | 54.88790 | -5.20351 | 17234 ft | 291 kts | 248° |
| 2026-05-05 22:06 | 54.88014 | -5.23527 | 16642 ft | 287 kts | 250° |
| 2026-05-05 22:07 | 54.87283 | -5.26737 | 16040 ft | 283 kts | 251° |
| 2026-05-05 22:07 | 54.86575 | -5.29932 | 15437 ft | 281 kts | 251° |
| 2026-05-05 22:07 | 54.85886 | -5.33069 | 14841 ft | 279 kts | 251° |
| 2026-05-05 22:07 | 54.85192 | -5.36227 | 14236 ft | 277 kts | 251° |
| 2026-05-05 22:08 | 54.84512 | -5.39322 | 13639 ft | 276 kts | 251° |
| 2026-05-05 22:08 | 54.83831 | -5.42422 | 13039 ft | 274 kts | 251° |
| 2026-05-05 22:08 | 54.83154 | -5.45490 | 12441 ft | 273 kts | 251° |
| 2026-05-05 22:08 | 54.82483 | -5.48572 | 11839 ft | 272 kts | 252° |
| 2026-05-05 22:09 | 54.81847 | -5.51660 | 11236 ft | 270 kts | 254° |
| 2026-05-05 22:09 | 54.81356 | -5.54812 | 10635 ft | 269 kts | 258° |
| 2026-05-05 22:09 | 54.80954 | -5.57950 | 10040 ft | 268 kts | 259° |
| 2026-05-05 22:09 | 54.80601 | -5.60960 | 9413 ft | 245 kts | 260° |
| 2026-05-05 22:10 | 54.80286 | -5.63771 | 8803 ft | 230 kts | 260° |
| 2026-05-05 22:10 | 54.80005 | -5.66348 | 8213 ft | 219 kts | 260° |
| 2026-05-05 22:10 | 54.79628 | -5.68873 | 7605 ft | 212 kts | 253° |
| 2026-05-05 22:10 | 54.79125 | -5.71224 | 7010 ft | 208 kts | 250° |
| 2026-05-05 22:11 | 54.78563 | -5.73518 | 6407 ft | 205 kts | 248° |
| 2026-05-05 22:11 | 54.77984 | -5.75760 | 5804 ft | 202 kts | 247° |
| 2026-05-05 22:11 | 54.77403 | -5.77966 | 5201 ft | 200 kts | 247° |
| 2026-05-05 22:11 | 54.76832 | -5.80117 | 4631 ft | 198 kts | 247° |
| 2026-05-05 22:12 | 54.76260 | -5.82264 | 4464 ft | 191 kts | 247° |
| 2026-05-05 22:12 | 54.75700 | -5.84362 | 4272 ft | 191 kts | 247° |
| 2026-05-05 22:12 | 54.75166 | -5.86361 | 4099 ft | 166 kts | 247° |
| 2026-05-05 22:12 | 54.74714 | -5.88046 | 3876 ft | 151 kts | 248° |
| 2026-05-05 22:13 | 54.74276 | -5.89690 | 3664 ft | 148 kts | 248° |
| 2026-05-05 22:13 | 54.73844 | -5.91318 | 3463 ft | 148 kts | 248° |
| 2026-05-05 22:13 | 54.73418 | -5.92921 | 3267 ft | 148 kts | 248° |
| 2026-05-05 22:13 | 54.72985 | -5.94544 | 3067 ft | 148 kts | 248° |
| 2026-05-05 22:14 | 54.72551 | -5.96170 | 2865 ft | 148 kts | 248° |
| 2026-05-05 22:14 | 54.72123 | -5.97769 | 2666 ft | 147 kts | 248° |
| 2026-05-05 22:14 | 54.71690 | -5.99385 | 2470 ft | 147 kts | 248° |
| 2026-05-05 22:14 | 54.71264 | -6.00976 | 2273 ft | 146 kts | 248° |
| 2026-05-05 22:15 | 54.70836 | -6.02571 | 2072 ft | 146 kts | 248° |
| 2026-05-05 22:15 | 54.70413 | -6.04152 | 1895 ft | 144 kts | 248° |
| 2026-05-05 22:15 | 54.69994 | -6.05722 | 1739 ft | 143 kts | 247° |
| 2026-05-05 22:15 | 54.69577 | -6.07290 | 1591 ft | 144 kts | 246° |
| 2026-05-05 22:16 | 54.69162 | -6.08845 | 1442 ft | 144 kts | 246° |
| 2026-05-05 22:16 | 54.68740 | -6.10421 | 1293 ft | 144 kts | 245° |
| 2026-05-05 22:16 | 54.68317 | -6.11998 | 1143 ft | 144 kts | 245° |
| 2026-05-05 22:16 | 54.67900 | -6.13557 | 995 ft | 144 kts | 245° |
| 2026-05-05 22:17 | 54.67477 | -6.15132 | 825 ft | 145 kts | 245° |
| 2026-05-05 22:17 | 54.67053 | -6.16713 | 650 ft | 144 kts | 245° |
| 2026-05-05 22:17 | 54.66637 | -6.18265 | 474 ft | 144 kts | 245° |
| 2026-05-05 22:17 | 54.66217 | -6.19830 | 287 ft | 140 kts | 245° |
| 2026-05-05 22:18 | 54.65875 | -6.21104 | 277 ft | 85 kts | 245° |
| 2026-05-05 22:18 | 54.65682 | -6.21821 | 277 ft | 55 kts | 245° |
| 2026-05-05 22:18 | 54.65543 | -6.22337 | 277 ft | 41 kts | 245° |
| 2026-05-05 22:18 | 54.65472 | -6.22628 | 277 ft | 17 kts | 271° |
| 2026-05-05 22:19 | 54.65516 | -6.22697 | 277 ft | 10 kts | 342° |
| 2026-05-05 22:19 | 54.65611 | -6.22749 | 277 ft | 17 kts | 342° |
| 2026-05-05 22:19 | 54.65730 | -6.22762 | 277 ft | 15 kts | 45° |
| 2026-05-05 22:19 | 54.65748 | -6.22601 | 277 ft | 16 kts | 83° |
| 2026-05-05 22:20 | 54.65762 | -6.22392 | 277 ft | 20 kts | 83° |
| 2026-05-05 22:20 | 54.65788 | -6.22138 | 277 ft | 23 kts | 71° |
| 2026-05-05 22:20 | 54.65833 | -6.21945 | 277 ft | 11 kts | 65° |
| 2026-05-05 22:20 | 54.65873 | -6.21798 | 277 ft | 16 kts | 65° |
| 2026-05-05 22:21 | 54.65925 | -6.21610 | 277 ft | 19 kts | 62° |
| 2026-05-05 22:21 | 54.65993 | -6.21595 | 277 ft | 12 kts | 335° |
| 2026-05-05 22:21 | 54.66030 | -6.21646 | 277 ft | 4 kts | 257° |
| 2026-05-05 22:21 | 54.66020 | -6.21686 | 277 ft | 7 kts | 245° |
| 2026-05-05 22:22 | 54.66006 | -6.21740 | 277 ft | 0 kts | 246° |